createdAt,value
2023-01-20T00:00:44.639Z,1.30
2023-01-20T00:03:15.529Z,1.30
2023-01-20T00:05:53.466Z,1.20
2023-01-20T00:08:24.443Z,1.30
2023-01-20T00:10:55.359Z,1.40
2023-01-20T00:13:26.425Z,1.30
2023-01-20T00:15:57.296Z,1.30
2023-01-20T00:18:29.049Z,1.30
2023-01-20T00:21:09.580Z,1.30
2023-01-20T00:23:41.460Z,1.40
2023-01-20T00:26:19.277Z,1.40
2023-01-20T00:28:53.926Z,1.40
2023-01-20T00:31:28.490Z,1.40
2023-01-20T00:34:03.425Z,1.30
2023-01-20T00:36:34.405Z,1.30
2023-01-20T00:39:05.985Z,1.20
2023-01-20T00:41:36.977Z,1.30
2023-01-20T00:44:07.858Z,1.30
2023-01-20T00:46:38.856Z,1.30
2023-01-20T00:49:10.858Z,1.20
2023-01-20T00:51:41.798Z,1.20
2023-01-20T00:54:12.678Z,1.20
2023-01-20T00:56:43.584Z,1.20
2023-01-20T00:59:14.421Z,1.10
2023-01-20T01:01:46.217Z,1.10
2023-01-20T01:04:17.134Z,1.20
2023-01-20T01:06:50.626Z,1.30
2023-01-20T01:09:21.957Z,1.30
2023-01-20T01:11:53.017Z,1.30
2023-01-20T01:14:24.094Z,1.30
2023-01-20T01:16:57.332Z,1.20
2023-01-20T01:19:28.318Z,1.10
2023-01-20T01:21:59.151Z,1.20
2023-01-20T01:24:30.038Z,1.20
2023-01-20T01:27:00.954Z,1.20
2023-01-20T01:29:31.819Z,1.20
2023-01-20T01:32:05.304Z,1.20
2023-01-20T01:34:36.170Z,1.30
2023-01-20T01:37:07.081Z,1.20
2023-01-20T01:39:37.922Z,1.30
2023-01-20T01:42:13.984Z,1.30
2023-01-20T01:45:09.837Z,1.40
2023-01-20T01:47:55.231Z,1.50
2023-01-20T01:50:38.065Z,1.40
2023-01-20T01:53:10.173Z,1.40
2023-01-20T01:55:46.695Z,1.40
2023-01-20T01:58:20.429Z,1.50
2023-01-20T02:00:51.616Z,1.60
2023-01-20T02:03:22.952Z,1.60
2023-01-20T02:05:55.254Z,1.60
2023-01-20T02:08:26.293Z,1.60
2023-01-20T02:10:57.217Z,1.60
2023-01-20T02:13:28.106Z,1.70
2023-01-20T02:16:21.040Z,1.70
2023-01-20T02:18:57.433Z,1.70
2023-01-20T02:22:02.396Z,1.80
2023-01-20T02:24:55.008Z,1.70
2023-01-20T02:28:14.103Z,1.60
2023-01-20T02:31:17.074Z,1.60
2023-01-20T02:33:52.688Z,1.50
2023-01-20T02:36:58.085Z,1.40
2023-01-20T02:39:49.668Z,1.40
2023-01-20T02:42:27.897Z,1.40
2023-01-20T02:45:34.296Z,1.50
2023-01-20T02:48:13.952Z,1.60
2023-01-20T02:51:20.141Z,1.60
2023-01-20T02:53:57.184Z,1.70
2023-01-20T02:56:30.366Z,1.70
2023-01-20T02:59:17.785Z,1.70
2023-01-20T03:01:54.830Z,1.70
2023-01-20T03:04:32.219Z,1.80
2023-01-20T03:07:04.942Z,1.80
2023-01-20T03:09:41.866Z,1.80
2023-01-20T03:12:22.410Z,1.90
2023-01-20T03:14:53.972Z,1.90
2023-01-20T03:17:24.898Z,1.80
2023-01-20T03:19:55.871Z,1.80
2023-01-20T03:22:27.662Z,1.80
2023-01-20T03:24:59.879Z,1.80
2023-01-20T03:27:30.785Z,1.80
2023-01-20T03:30:01.739Z,1.80
2023-01-20T03:32:32.896Z,1.80
2023-01-20T03:35:04.425Z,1.90
2023-01-20T03:37:35.394Z,1.90
2023-01-20T03:40:07.550Z,1.90
2023-01-20T03:42:59.982Z,1.70
2023-01-20T03:46:01.108Z,1.60
2023-01-20T03:48:42.114Z,1.50
2023-01-20T03:51:35.130Z,1.50
2023-01-20T03:54:15.701Z,1.50
2023-01-20T03:56:56.816Z,1.60
2023-01-20T03:59:27.749Z,1.80
2023-01-20T04:02:03.461Z,1.90
2023-01-20T04:04:39.341Z,1.90
2023-01-20T04:07:15.682Z,2.00
2023-01-20T04:09:54.088Z,2.00
2023-01-20T04:12:25.027Z,2.00
2023-01-20T04:14:55.908Z,2.00
2023-01-20T04:17:30.163Z,1.70
2023-01-20T04:20:10.460Z,1.60
2023-01-20T04:22:41.316Z,1.60
2023-01-20T04:25:19.703Z,1.60
2023-01-20T04:27:50.647Z,1.70
2023-01-20T04:30:21.710Z,1.70
2023-01-20T04:32:52.541Z,1.60
2023-01-20T04:35:23.591Z,1.70
2023-01-20T04:37:54.411Z,1.80
2023-01-20T04:40:25.314Z,1.80
2023-01-20T04:42:56.209Z,1.80
2023-01-20T04:45:27.196Z,1.80
2023-01-20T04:47:58.096Z,1.70
2023-01-20T04:50:28.967Z,1.50
2023-01-20T04:53:00.865Z,1.40
2023-01-20T04:55:33.645Z,1.40
2023-01-20T04:58:04.616Z,1.30
2023-01-20T05:00:35.686Z,1.30
2023-01-20T05:03:06.650Z,1.40
2023-01-20T05:05:37.539Z,1.40
2023-01-20T05:08:08.523Z,1.50
2023-01-20T05:10:39.383Z,1.50
2023-01-20T05:13:10.224Z,1.50
2023-01-20T05:15:43.995Z,1.50
2023-01-20T05:18:16.306Z,1.60
2023-01-20T05:20:51.394Z,1.60
2023-01-20T05:23:22.368Z,1.60
2023-01-20T05:25:54.448Z,1.50
2023-01-20T05:28:25.523Z,1.50
2023-01-20T05:30:56.468Z,1.50
2023-01-20T05:33:27.346Z,1.50
2023-01-20T05:35:58.245Z,1.50
2023-01-20T05:38:29.103Z,1.40
2023-01-20T05:41:05.674Z,1.40
2023-01-20T05:43:36.888Z,1.50
2023-01-20T05:46:07.817Z,1.40
2023-01-20T05:48:38.753Z,1.40
2023-01-20T05:51:09.627Z,1.40
2023-01-20T05:53:40.465Z,1.50
2023-01-20T05:56:16.115Z,1.50
2023-01-20T05:58:47.139Z,1.50
2023-01-20T06:01:20.856Z,1.40
2023-01-20T06:03:51.834Z,1.40
2023-01-20T06:06:22.844Z,1.40
2023-01-20T06:08:53.833Z,1.40
2023-01-20T06:11:25.110Z,1.40
2023-01-20T06:13:55.944Z,1.40
2023-01-20T06:16:26.827Z,1.50
2023-01-20T06:18:57.806Z,1.40
2023-01-20T06:21:28.755Z,1.60
2023-01-20T06:23:59.624Z,1.60
2023-01-20T06:26:30.501Z,1.60
2023-01-20T06:29:01.648Z,1.50
2023-01-20T06:31:32.544Z,1.50
2023-01-20T06:34:03.751Z,1.50
2023-01-20T06:36:34.624Z,1.50
2023-01-20T06:39:05.909Z,1.40
2023-01-20T06:41:36.843Z,1.50
2023-01-20T06:44:07.701Z,1.50
2023-01-20T06:46:38.698Z,1.50
2023-01-20T06:49:09.636Z,1.40
2023-01-20T06:51:41.848Z,1.40
2023-01-20T06:54:12.712Z,1.50
2023-01-20T06:56:43.659Z,1.40
2023-01-20T06:59:14.511Z,1.40
2023-01-20T07:01:45.497Z,1.40
2023-01-20T07:04:16.471Z,1.50
2023-01-20T07:06:47.422Z,1.50
2023-01-20T07:09:18.398Z,1.60
2023-01-20T07:11:49.291Z,1.60
2023-01-20T07:14:20.188Z,1.60
2023-01-20T07:16:51.225Z,1.70
2023-01-20T07:19:22.182Z,1.70
2023-01-20T07:21:53.123Z,1.60
2023-01-20T07:24:27.026Z,1.60
2023-01-20T07:26:57.856Z,1.60
2023-01-20T07:29:28.774Z,1.50
2023-01-20T07:31:59.686Z,1.60
2023-01-20T07:34:30.761Z,1.60
2023-01-20T07:37:02.426Z,1.60
2023-01-20T07:39:33.247Z,1.60
2023-01-20T07:42:04.268Z,1.60
2023-01-20T07:44:35.147Z,1.60
2023-01-20T07:47:06.010Z,1.50
2023-01-20T07:49:36.862Z,1.60
2023-01-20T07:52:07.841Z,1.60
2023-01-20T07:54:38.694Z,1.50
2023-01-20T07:57:09.543Z,1.40
2023-01-20T07:59:40.456Z,1.50
2023-01-20T08:02:11.365Z,1.60
2023-01-20T08:04:42.439Z,1.70
2023-01-20T08:07:13.379Z,1.70
2023-01-20T08:09:44.275Z,1.80
2023-01-20T08:12:15.103Z,1.80
2023-01-20T08:14:45.954Z,1.80
2023-01-20T08:17:16.799Z,1.90
2023-01-20T08:19:47.660Z,1.90
2023-01-20T08:22:18.576Z,1.90
2023-01-20T08:24:49.483Z,1.90
2023-01-20T08:27:20.457Z,2.10
2023-01-20T08:29:54.507Z,2.00
2023-01-20T08:32:25.352Z,2.00
2023-01-20T08:34:56.266Z,2.10
2023-01-20T08:37:29.975Z,2.10
2023-01-20T08:40:00.867Z,2.00
2023-01-20T08:42:31.914Z,2.10
2023-01-20T08:45:04.691Z,2.20
2023-01-20T08:47:44.386Z,2.40
2023-01-20T08:50:16.036Z,2.30
2023-01-20T08:52:47.407Z,2.30
2023-01-20T08:55:20.014Z,2.10
2023-01-20T08:57:50.863Z,2.00
2023-01-20T09:00:22.217Z,2.10
2023-01-20T09:02:53.084Z,2.20
2023-01-20T09:05:24.142Z,2.30
2023-01-20T09:07:55.007Z,2.40
2023-01-20T09:10:25.871Z,2.60
2023-01-20T09:12:56.706Z,2.60
2023-01-20T09:15:30.302Z,2.30
2023-01-20T09:18:01.155Z,2.20
2023-01-20T09:20:32.007Z,2.30
2023-01-20T09:23:03.210Z,2.30
2023-01-20T09:25:34.139Z,2.50
2023-01-20T09:28:06.683Z,2.50
2023-01-20T09:30:37.654Z,2.40
2023-01-20T09:33:11.339Z,2.50
2023-01-20T09:35:42.210Z,2.50
2023-01-20T09:38:31.517Z,2.50
2023-01-20T09:41:36.808Z,2.60
2023-01-20T09:44:46.162Z,2.60
2023-01-20T09:47:32.499Z,2.80
2023-01-20T09:50:39.485Z,2.80
2023-01-20T09:53:24.965Z,2.60
2023-01-20T09:56:19.554Z,2.70
2023-01-20T09:59:08.368Z,2.60
2023-01-20T10:01:58.670Z,3.00
2023-01-20T10:04:43.627Z,3.10
2023-01-20T10:07:56.597Z,3.00
2023-01-20T10:10:45.276Z,3.10
2023-01-20T10:13:35.266Z,3.20
2023-01-20T10:16:12.530Z,3.10
2023-01-20T10:18:52.660Z,3.20
2023-01-20T10:21:38.044Z,3.20
2023-01-20T10:24:58.589Z,3.20
2023-01-20T10:27:31.285Z,3.30
2023-01-20T10:30:12.365Z,3.10
2023-01-20T10:32:54.848Z,3.10
2023-01-20T10:35:32.167Z,3.10
2023-01-20T10:38:08.426Z,3.30
2023-01-20T10:40:54.233Z,3.20
2023-01-20T10:43:26.242Z,3.00
2023-01-20T10:46:23.673Z,3.10
2023-01-20T10:49:13.076Z,3.20
2023-01-20T10:52:38.053Z,3.10
2023-01-20T10:55:49.221Z,3.20
2023-01-20T10:58:26.035Z,3.20
2023-01-20T11:01:00.638Z,3.00
2023-01-20T11:03:40.632Z,3.30
2023-01-20T11:06:26.617Z,3.30
2023-01-20T11:09:01.384Z,3.10
2023-01-20T11:11:32.376Z,3.10
2023-01-20T11:14:03.957Z,3.40
2023-01-20T11:16:38.756Z,3.50
2023-01-20T11:19:10.012Z,3.70
2023-01-20T11:21:41.600Z,3.90
2023-01-20T11:24:43.836Z,4.20
2023-01-20T11:27:21.450Z,4.50
2023-01-20T11:29:59.536Z,4.70
2023-01-20T11:32:36.214Z,4.90
2023-01-20T11:35:25.324Z,4.80
2023-01-20T11:37:56.171Z,5.00
2023-01-20T11:40:28.619Z,4.70
2023-01-20T11:42:59.502Z,4.90
2023-01-20T11:45:38.840Z,5.10
2023-01-20T11:48:18.360Z,5.20
2023-01-20T11:50:56.133Z,5.10
2023-01-20T11:53:31.719Z,5.10
2023-01-20T11:56:14.724Z,5.20
2023-01-20T11:58:59.081Z,5.20
2023-01-20T12:01:50.559Z,5.30
2023-01-20T12:04:43.850Z,5.40
2023-01-20T12:07:43.680Z,5.20
2023-01-20T12:10:24.608Z,5.20
2023-01-20T12:13:05.917Z,5.20
2023-01-20T12:15:43.243Z,5.30
2023-01-20T12:19:01.341Z,5.40
2023-01-20T12:21:43.688Z,5.60
2023-01-20T12:24:54.365Z,5.30
2023-01-20T12:27:28.353Z,5.00
2023-01-20T12:30:07.960Z,5.10
2023-01-20T12:32:42.854Z,5.10
2023-01-20T12:35:15.151Z,4.80
2023-01-20T12:37:58.071Z,4.50
2023-01-20T12:40:48.273Z,4.60
2023-01-20T12:43:28.058Z,4.50
2023-01-20T12:46:20.891Z,4.50
2023-01-20T12:49:24.103Z,4.40
2023-01-20T12:52:34.265Z,4.20
2023-01-20T12:55:32.029Z,4.00
2023-01-20T12:58:39.942Z,4.10
2023-01-20T13:01:25.503Z,4.00
2023-01-20T13:04:23.524Z,4.10
2023-01-20T13:07:16.016Z,4.00
2023-01-20T13:10:30.685Z,4.00
2023-01-20T13:13:23.608Z,4.10
2023-01-20T13:16:18.157Z,4.20
2023-01-20T13:19:19.335Z,4.10
2023-01-20T13:22:06.628Z,3.90
2023-01-20T13:24:43.235Z,4.10
2023-01-20T13:27:21.682Z,4.10
2023-01-20T13:29:59.003Z,4.10
2023-01-20T13:32:39.100Z,3.90
2023-01-20T13:35:24.876Z,3.90
2023-01-20T13:38:00.246Z,3.90
2023-01-20T13:40:37.232Z,3.90
2023-01-20T13:43:23.935Z,4.00
2023-01-20T13:46:15.762Z,4.10
2023-01-20T13:49:22.106Z,4.00
2023-01-20T13:51:53.231Z,4.00
2023-01-20T13:54:25.120Z,4.10
2023-01-20T13:57:21.645Z,4.00
2023-01-20T13:59:52.550Z,4.10
2023-01-20T14:02:28.998Z,4.10
2023-01-20T14:05:00.234Z,4.10
2023-01-20T14:07:32.937Z,3.90
2023-01-20T14:10:04.155Z,4.10
2023-01-20T14:12:41.529Z,4.10
2023-01-20T14:15:36.395Z,4.10
2023-01-20T14:18:15.881Z,4.20
2023-01-20T14:21:32.233Z,4.20
2023-01-20T14:24:04.254Z,4.10
2023-01-20T14:26:35.198Z,3.90
2023-01-20T14:29:06.049Z,3.90
2023-01-20T14:31:45.815Z,4.00
2023-01-20T14:34:32.741Z,4.00
2023-01-20T14:37:28.295Z,4.20
2023-01-20T14:40:32.948Z,4.30
2023-01-20T14:43:17.823Z,4.30
2023-01-20T14:45:52.733Z,4.20
2023-01-20T14:48:33.716Z,4.10
2023-01-20T14:51:06.369Z,4.10
2023-01-20T14:53:37.241Z,4.10
2023-01-20T14:56:18.632Z,4.20
2023-01-20T14:58:58.222Z,4.30
2023-01-20T15:01:29.232Z,4.20
2023-01-20T15:04:02.517Z,4.10
2023-01-20T15:06:33.519Z,3.90
2023-01-20T15:09:33.137Z,3.90
2023-01-20T15:12:32.900Z,3.90
2023-01-20T15:15:31.518Z,4.00
2023-01-20T15:18:11.460Z,4.00
2023-01-20T15:20:46.851Z,4.00
2023-01-20T15:23:36.719Z,3.90
2023-01-20T15:26:30.084Z,3.90
2023-01-20T15:29:01.072Z,3.90
2023-01-20T15:31:32.061Z,3.90
2023-01-20T15:34:03.467Z,3.80
2023-01-20T15:36:37.016Z,3.80
2023-01-20T15:39:29.048Z,3.90
2023-01-20T15:42:01.483Z,3.90
2023-01-20T15:44:32.359Z,3.90
2023-01-20T15:47:27.152Z,3.90
2023-01-20T15:49:58.696Z,3.80
2023-01-20T15:52:29.707Z,3.80
2023-01-20T15:55:00.589Z,3.70
2023-01-20T15:57:31.426Z,3.60
2023-01-20T16:00:03.788Z,3.50
2023-01-20T16:02:34.695Z,3.40
2023-01-20T16:05:06.165Z,3.30
2023-01-20T16:07:37.107Z,3.10
2023-01-20T16:10:16.643Z,3.00
2023-01-20T16:12:48.324Z,2.90
2023-01-20T16:15:19.366Z,3.00
2023-01-20T16:17:55.364Z,2.80
2023-01-20T16:20:27.221Z,2.80
2023-01-20T16:22:58.541Z,2.70
2023-01-20T16:25:30.035Z,2.70
2023-01-20T16:28:01.739Z,2.60
2023-01-20T16:30:32.612Z,3.50
2023-01-20T16:33:03.526Z,5.70
2023-01-20T16:35:34.407Z,6.20
2023-01-20T16:38:05.251Z,5.40
2023-01-20T16:40:36.302Z,4.70
2023-01-20T16:43:09.953Z,4.30
2023-01-20T16:45:42.581Z,5.30
2023-01-20T16:48:13.487Z,4.70
2023-01-20T16:50:44.810Z,4.10
2023-01-20T16:53:17.726Z,3.60
2023-01-20T16:55:49.323Z,3.00
2023-01-20T16:58:20.283Z,2.80
2023-01-20T17:00:56.490Z,2.50
2023-01-20T17:03:30.112Z,2.30
2023-01-20T17:06:18.112Z,3.00
2023-01-20T17:08:52.685Z,2.50
2023-01-20T17:11:30.202Z,2.10
2023-01-20T17:14:06.954Z,1.90
2023-01-20T17:16:39.110Z,1.70
2023-01-20T17:19:10.302Z,1.70
2023-01-20T17:21:41.476Z,1.60
2023-01-20T17:24:12.761Z,1.40
2023-01-20T17:26:43.662Z,3.40
2023-01-20T17:29:14.626Z,4.90
2023-01-20T17:31:45.570Z,5.80
2023-01-20T17:34:16.443Z,6.20
2023-01-20T17:36:48.569Z,4.70
2023-01-20T17:39:19.409Z,3.60
2023-01-20T17:41:50.289Z,3.00
2023-01-20T17:44:21.133Z,2.40
2023-01-20T17:46:52.244Z,2.20
2023-01-20T17:49:23.129Z,2.60
2023-01-20T17:51:53.986Z,2.20
2023-01-20T17:54:24.929Z,1.90
2023-01-20T17:56:58.091Z,1.60
2023-01-20T17:59:29.005Z,1.40
2023-01-20T18:01:59.914Z,1.30
2023-01-20T18:04:31.184Z,1.20
2023-01-20T18:07:04.091Z,1.00
2023-01-20T18:09:35.139Z,1.00
2023-01-20T18:12:06.325Z,2.50
2023-01-20T18:14:37.185Z,3.00
2023-01-20T18:17:08.104Z,2.30
2023-01-20T18:19:39.166Z,2.00
2023-01-20T18:22:11.552Z,1.60
2023-01-20T18:24:42.419Z,1.40
2023-01-20T18:27:14.853Z,1.30
2023-01-20T18:29:45.831Z,1.10
2023-01-20T18:32:16.685Z,0.90
2023-01-20T18:34:48.656Z,0.80
2023-01-20T18:37:19.501Z,0.80
2023-01-20T18:39:50.352Z,0.80
2023-01-20T18:42:21.974Z,0.70
2023-01-20T18:44:52.932Z,0.50
2023-01-20T18:47:23.788Z,0.40
2023-01-20T18:49:54.712Z,0.40
2023-01-20T18:52:25.557Z,0.30
2023-01-20T18:54:56.416Z,0.20
2023-01-20T18:57:27.571Z,2.40
2023-01-20T18:59:58.475Z,1.80
2023-01-20T19:02:29.438Z,1.30
2023-01-20T19:05:03.357Z,1.00
2023-01-20T19:07:34.208Z,0.80
2023-01-20T19:10:05.704Z,0.60
2023-01-20T19:12:36.551Z,0.40
2023-01-20T19:15:08.179Z,0.40
2023-01-20T19:17:39.698Z,0.30
2023-01-20T19:20:11.437Z,0.40
2023-01-20T19:22:42.297Z,0.40
2023-01-20T19:25:13.195Z,0.50
2023-01-20T19:27:44.118Z,0.50
2023-01-20T19:30:15.746Z,0.60
2023-01-20T19:32:46.710Z,0.60
2023-01-20T19:35:17.591Z,0.50
2023-01-20T19:37:48.596Z,0.50
2023-01-20T19:40:19.530Z,0.50
2023-01-20T19:42:52.502Z,0.50
2023-01-20T19:45:25.459Z,0.40
2023-01-20T19:47:57.816Z,0.40
2023-01-20T19:50:28.777Z,0.40
2023-01-20T19:52:59.642Z,0.40
2023-01-20T19:55:30.589Z,0.40
2023-01-20T19:58:03.852Z,0.40
2023-01-20T20:00:34.732Z,0.50
2023-01-20T20:03:06.395Z,0.50
2023-01-20T20:05:38.699Z,0.50
2023-01-20T20:08:09.585Z,0.50
2023-01-20T20:10:43.850Z,0.50
2023-01-20T20:13:15.135Z,0.40
2023-01-20T20:15:46.062Z,0.40
2023-01-20T20:18:16.943Z,0.50
2023-01-20T20:20:47.837Z,0.40
2023-01-20T20:23:20.057Z,0.40
2023-01-20T20:25:55.969Z,0.40
2023-01-20T20:28:28.579Z,0.50
2023-01-20T20:31:06.047Z,0.60
2023-01-20T20:33:36.990Z,0.60
2023-01-20T20:36:10.169Z,0.70
2023-01-20T20:38:41.554Z,0.60
2023-01-20T20:41:12.675Z,0.70
2023-01-20T20:43:43.731Z,0.60
2023-01-20T20:46:16.504Z,3.00
2023-01-20T20:48:47.536Z,3.60
2023-01-20T20:51:18.568Z,2.50
2023-01-20T20:53:50.014Z,2.00
2023-01-20T20:56:21.882Z,1.50
2023-01-20T20:59:01.609Z,1.20
2023-01-20T21:01:34.691Z,1.10
2023-01-20T21:04:08.926Z,0.80
2023-01-20T21:06:39.888Z,0.70
2023-01-20T21:09:10.804Z,0.50
2023-01-20T21:11:43.191Z,0.40
2023-01-20T21:14:14.478Z,0.30
2023-01-20T21:16:45.330Z,0.40
2023-01-20T21:19:18.240Z,0.40
2023-01-20T21:21:49.114Z,0.60
2023-01-20T21:24:21.875Z,0.40
2023-01-20T21:26:52.976Z,0.60
2023-01-20T21:29:26.172Z,0.60
2023-01-20T21:31:57.552Z,0.50
2023-01-20T21:34:28.519Z,0.80
2023-01-20T21:36:59.633Z,0.70
2023-01-20T21:39:30.569Z,0.90
2023-01-20T21:42:01.623Z,0.70
2023-01-20T21:44:34.076Z,0.50
2023-01-20T21:47:10.653Z,0.40
2023-01-20T21:50:00.202Z,0.40
2023-01-20T21:52:42.826Z,0.40
2023-01-20T21:55:19.129Z,0.50
2023-01-20T21:57:51.555Z,0.50
2023-01-20T22:00:23.062Z,0.50
2023-01-20T22:02:53.923Z,0.50
2023-01-20T22:05:24.759Z,0.60
2023-01-20T22:07:55.608Z,1.90
2023-01-20T22:10:26.492Z,1.80
2023-01-20T22:12:57.341Z,1.40
2023-01-20T22:15:29.802Z,1.20
2023-01-20T22:18:00.650Z,1.20
2023-01-20T22:20:31.596Z,1.10
2023-01-20T22:23:03.062Z,1.00
2023-01-20T22:25:35.119Z,1.10
2023-01-20T22:28:06.019Z,1.00
2023-01-20T22:30:37.693Z,1.00
2023-01-20T22:33:10.060Z,1.20
2023-01-20T22:35:41.324Z,1.20
2023-01-20T22:38:12.252Z,1.10
2023-01-20T22:40:43.102Z,0.90
2023-01-20T22:43:13.983Z,1.20
2023-01-20T22:45:47.271Z,1.20
2023-01-20T22:48:18.968Z,1.00
2023-01-20T22:50:49.849Z,1.00
2023-01-20T22:53:20.725Z,1.00
2023-01-20T22:56:00.599Z,0.70
2023-01-20T22:58:33.210Z,0.60
2023-01-20T23:01:04.461Z,0.60
2023-01-20T23:03:35.374Z,0.50
2023-01-20T23:06:06.809Z,0.40
2023-01-20T23:08:38.740Z,0.20
2023-01-20T23:11:15.398Z,0.30
2023-01-20T23:13:46.923Z,0.50
2023-01-20T23:16:22.299Z,0.50
2023-01-20T23:18:53.531Z,1.00
2023-01-20T23:21:24.548Z,2.20
2023-01-20T23:23:55.612Z,1.80
2023-01-20T23:26:29.621Z,1.40
2023-01-20T23:29:00.544Z,1.00
2023-01-20T23:31:33.602Z,0.80
2023-01-20T23:34:04.629Z,0.50
2023-01-20T23:36:35.523Z,0.50
2023-01-20T23:39:06.373Z,0.60
2023-01-20T23:41:37.284Z,2.40
2023-01-20T23:44:10.098Z,2.70
2023-01-20T23:46:41.027Z,1.90
2023-01-20T23:49:11.894Z,1.50
2023-01-20T23:51:42.791Z,1.30
2023-01-20T23:54:13.631Z,1.10
2023-01-20T23:56:44.507Z,0.80
2023-01-20T23:59:15.436Z,0.70
